Time;durP1;ratioP1;P1;durP2;ratioP2;P2;SDS_P1;SDS_P2;PMS_P1;PMS_P2;Temp;Humidity;BMP_temperature;BMP_pressure;BME280_temperature;BME280_humidity;BME280_pressure;Samples;Min_cycle;Max_cycle;Signal;HPM_P1;HPM_P2
2022/11/12 00:00:34;;;;;;;49.83;45.58;;;10.20;99.90;;;;;;5054799;28;20493;-82
2022/11/12 00:03:01;;;;;;;52.60;47.97;;;10.20;99.90;;;;;;5055161;28;20041;-82
2022/11/12 00:05:27;;;;;;;51.78;47.03;;;10.20;99.90;;;;;;5054729;28;20048;-83
2022/11/12 00:07:53;;;;;;;52.55;47.63;;;10.20;99.90;;;;;;5054997;28;20393;-82
2022/11/12 00:10:19;;;;;;;50.28;45.45;;;10.10;99.90;;;;;;5037482;28;20033;-82
2022/11/12 00:12:45;;;;;;;50.35;45.70;;;10.10;99.90;;;;;;5037197;28;20044;-82
2022/11/12 00:15:11;;;;;;;47.72;43.28;;;10.00;99.90;;;;;;5054454;28;20528;-82
2022/11/12 00:17:38;;;;;;;46.95;42.33;;;10.00;99.90;;;;;;5054995;28;20028;-82
2022/11/12 00:20:05;;;;;;;44.50;40.13;;;9.90;99.90;;;;;;5053251;28;20466;-82
2022/11/12 00:22:31;;;;;;;48.40;43.95;;;9.90;99.90;;;;;;5054774;28;20036;-82
2022/11/12 00:24:57;;;;;;;48.45;43.08;;;10.00;99.90;;;;;;5036124;28;20056;-82
2022/11/12 00:27:23;;;;;;;47.33;42.65;;;10.10;99.90;;;;;;5037040;28;20032;-82
2022/11/12 00:29:50;;;;;;;45.95;41.60;;;10.20;99.90;;;;;;5054626;28;20021;-82
2022/11/12 00:32:16;;;;;;;45.40;41.15;;;10.20;99.90;;;;;;5053928;28;20037;-82
2022/11/12 00:34:42;;;;;;;47.22;42.72;;;10.20;99.90;;;;;;5020354;28;20413;-83
2022/11/12 00:37:08;;;;;;;48.45;43.85;;;10.10;99.90;;;;;;5036816;28;20028;-82
2022/11/12 00:39:34;;;;;;;48.88;44.55;;;10.00;99.90;;;;;;5036020;28;20037;-82
2022/11/12 00:42:00;;;;;;;46.80;42.10;;;10.00;99.90;;;;;;5036453;28;20056;-82
2022/11/12 00:44:28;;;;;;;45.70;41.20;;;10.10;99.90;;;;;;5036622;28;20040;-82
2022/11/12 00:46:55;;;;;;;45.58;41.25;;;10.00;99.90;;;;;;5034975;28;20033;-82
2022/11/12 00:49:21;;;;;;;47.78;43.28;;;9.90;99.90;;;;;;5016385;28;20040;-82
2022/11/12 00:51:48;;;;;;;49.33;44.72;;;9.90;99.90;;;;;;5034466;28;20048;-82
2022/11/12 00:54:14;;;;;;;50.92;46.20;;;9.80;99.90;;;;;;5033899;28;20048;-82
2022/11/12 00:56:40;;;;;;;48.40;44.20;;;9.70;99.90;;;;;;5032643;28;20040;-82
2022/11/12 00:59:06;;;;;;;48.22;43.85;;;9.70;99.90;;;;;;5016589;28;20034;-82
2022/11/12 01:01:33;;;;;;;48.03;42.92;;;9.80;99.90;;;;;;5031770;28;20033;-82
2022/11/12 01:03:59;;;;;;;47.60;43.20;;;9.80;99.90;;;;;;5034025;28;20033;-82
2022/11/12 01:06:25;;;;;;;48.47;43.83;;;9.80;99.90;;;;;;5016373;28;20030;-81
2022/11/12 01:08:51;;;;;;;47.17;42.58;;;9.80;99.90;;;;;;5016450;28;20049;-82
2022/11/12 01:11:27;;;;;;;45.47;41.17;;;9.80;99.90;;;;;;5034015;28;20029;-82
2022/11/12 01:14:02;;;;;;;48.28;43.30;;;9.80;99.90;;;;;;5017346;28;20034;-82
2022/11/12 01:16:30;;;;;;;46.22;41.72;;;9.80;99.90;;;;;;5031416;28;20037;-82
2022/11/12 01:18:58;;;;;;;47.38;42.72;;;9.80;99.90;;;;;;5020527;28;20483;-82
2022/11/12 01:21:25;;;;;;;48.53;43.92;;;9.90;99.90;;;;;;5035422;28;20044;-82
2022/11/12 01:23:51;;;;;;;47.90;43.10;;;9.90;99.90;;;;;;5035985;28;20040;-82
2022/11/12 01:26:19;;;;;;;69.03;45.38;;;10.00;99.90;;;;;;5053817;28;20025;-82
2022/11/12 01:28:45;;;;;;;45.33;40.60;;;9.90;99.90;;;;;;5018667;28;20044;-82
2022/11/12 01:31:17;;;;;;;69.78;43.05;;;9.90;99.90;;;;;;5034684;28;20037;-82
2022/11/12 01:33:43;;;;;;;60.90;42.50;;;9.70;99.90;;;;;;5053520;28;20377;-82
2022/11/12 01:36:10;;;;;;;59.10;37.72;;;9.60;99.90;;;;;;5035217;28;20049;-82
2022/11/12 01:38:36;;;;;;;137.02;43.60;;;9.60;99.90;;;;;;5034579;28;20377;-82
2022/11/12 01:41:03;;;;;;;60.08;36.78;;;9.50;99.90;;;;;;5035687;28;20056;-82
2022/11/12 01:43:29;;;;;;;93.95;38.33;;;9.40;99.90;;;;;;5053303;28;20445;-82
2022/11/12 01:45:55;;;;;;;145.88;37.70;;;9.30;99.90;;;;;;5033893;28;20029;-82
2022/11/12 01:48:28;;;;;;;57.90;35.22;;;9.30;99.90;;;;;;5015596;28;20025;-82
2022/11/12 01:50:54;;;;;;;78.63;34.33;;;9.30;99.90;;;;;;4998823;28;20033;-82
2022/11/12 01:53:21;;;;;;;72.40;33.55;;;9.30;99.90;;;;;;5015417;28;20359;-82
2022/11/12 01:55:47;;;;;;;93.90;33.50;;;9.30;99.90;;;;;;4998682;28;20509;-82
2022/11/12 01:58:14;;;;;;;73.22;34.63;;;9.20;99.90;;;;;;5033117;28;20036;-82
2022/11/12 02:00:40;;;;;;;86.05;37.92;;;9.20;99.90;;;;;;5014998;28;20029;-82
2022/11/12 02:03:12;;;;;;;58.17;36.97;;;9.20;99.90;;;;;;5015317;28;20040;-82
2022/11/12 02:05:38;;;;;;;67.95;37.65;;;9.20;99.90;;;;;;4999033;28;20479;-82
2022/11/12 02:08:05;;;;;;;61.60;37.45;;;9.20;99.90;;;;;;5015302;28;20040;-82
2022/11/12 02:10:31;;;;;;;82.20;41.03;;;9.20;99.90;;;;;;5015335;28;20029;-82
2022/11/12 02:15:41;;;;;;;59.58;37.22;;;9.30;99.90;;;;;;5018587;28;20029;-82
2022/11/12 02:18:08;;;;;;;62.30;39.67;;;9.20;99.90;;;;;;5032740;28;20466;-83
2022/11/12 02:20:35;;;;;;;51.20;39.63;;;9.20;99.90;;;;;;5050286;28;20033;-82
2022/11/12 02:23:01;;;;;;;47.50;39.08;;;9.30;99.90;;;;;;5034631;28;20496;-82
2022/11/12 02:25:27;;;;;;;61.85;36.97;;;9.20;99.90;;;;;;5017780;28;20045;-82
2022/11/12 02:27:54;;;;;;;102.82;39.67;;;9.20;99.90;;;;;;5033731;28;20032;-82
2022/11/12 02:30:31;;;;;;;75.20;38.90;;;9.10;99.90;;;;;;5033943;28;20025;-82
2022/11/12 02:32:57;;;;;;;109.28;42.05;;;9.30;99.90;;;;;;5034764;28;20032;-82
2022/11/12 02:35:23;;;;;;;48.72;37.95;;;9.30;99.90;;;;;;5052394;28;20468;-82
2022/11/12 02:37:49;;;;;;;68.80;37.85;;;9.30;99.90;;;;;;5034733;28;20040;-82
2022/11/12 02:40:16;;;;;;;55.60;33.95;;;9.30;99.90;;;;;;5052165;28;20393;-82
2022/11/12 02:42:42;;;;;;;36.50;32.58;;;9.40;99.90;;;;;;5050514;28;20041;-82
2022/11/12 02:45:08;;;;;;;72.20;33.75;;;9.30;99.90;;;;;;5050771;28;20040;-82
2022/11/12 02:47:35;;;;;;;42.83;33.67;;;9.20;99.90;;;;;;5033802;28;20033;-82
2022/11/12 02:50:01;;;;;;;68.18;34.75;;;9.30;99.90;;;;;;5051471;28;20041;-82
2022/11/12 02:52:27;;;;;;;39.47;31.15;;;9.20;99.90;;;;;;5051579;28;20036;-82
2022/11/12 02:54:53;;;;;;;36.95;32.80;;;9.10;99.90;;;;;;5051466;28;20036;-82
2022/11/12 02:57:19;;;;;;;58.75;32.97;;;9.00;99.90;;;;;;5050915;28;20036;-82
2022/11/12 02:59:45;;;;;;;77.63;36.28;;;8.80;99.90;;;;;;5050358;28;20044;-82
2022/11/12 03:02:11;;;;;;;207.68;40.28;;;8.90;99.90;;;;;;5048028;28;20036;-82
2022/11/12 03:04:39;;;;;;;60.63;35.88;;;9.00;99.90;;;;;;5027404;28;20041;-82
2022/11/12 03:07:05;;;;;;;58.03;37.35;;;8.90;99.90;;;;;;5041519;28;20397;-81
2022/11/12 03:09:31;;;;;;;57.53;36.90;;;9.00;99.90;;;;;;5036418;28;20042;-82
2022/11/12 03:11:57;;;;;;;57.25;32.67;;;9.00;99.90;;;;;;5031830;28;20371;-82
2022/11/12 03:14:23;;;;;;;62.30;38.17;;;9.00;99.90;;;;;;5031013;28;20539;-82
2022/11/12 03:16:49;;;;;;;46.58;36.67;;;9.00;99.90;;;;;;5007460;28;20029;-82
2022/11/12 03:19:15;;;;;;;82.03;38.72;;;9.00;99.90;;;;;;5017490;28;20045;-82
2022/11/12 03:21:42;;;;;;;120.18;40.58;;;9.00;99.90;;;;;;5049569;28;20039;-82
2022/11/12 03:24:08;;;;;;;41.88;35.63;;;9.00;99.90;;;;;;5049424;28;20524;-83
2022/11/12 03:26:34;;;;;;;107.75;38.25;;;9.20;99.90;;;;;;5049167;28;20029;-82
2022/11/12 03:29:00;;;;;;;82.93;36.28;;;9.20;99.90;;;;;;5049547;28;20036;-82
2022/11/12 03:31:26;;;;;;;102.47;35.80;;;9.30;99.90;;;;;;5049220;28;20036;-83
2022/11/12 03:33:52;;;;;;;96.80;36.47;;;9.40;99.90;;;;;;5049318;28;20029;-82
2022/11/12 03:36:18;;;;;;;53.92;35.55;;;9.30;99.90;;;;;;5031837;28;20474;-82
2022/11/12 03:38:44;;;;;;;123.00;37.33;;;9.30;99.90;;;;;;5050701;28;20025;-82
2022/11/12 03:41:10;;;;;;;283.83;42.08;;;9.30;99.90;;;;;;4994662;28;1106132;-82
2022/11/12 03:43:36;;;;;;;62.33;35.60;;;9.30;99.90;;;;;;5051889;28;20497;-82
2022/11/12 03:46:02;;;;;;;61.60;37.17;;;9.40;99.90;;;;;;5051184;28;20036;-82
2022/11/12 03:48:29;;;;;;;181.00;40.08;;;9.40;99.90;;;;;;5033853;28;20044;-82
2022/11/12 03:50:58;;;;;;;96.93;38.17;;;9.30;99.90;;;;;;5051663;28;20470;-82
2022/11/12 03:53:24;;;;;;;90.68;35.83;;;9.30;99.90;;;;;;5051618;28;20040;-82
2022/11/12 03:55:50;;;;;;;94.50;37.97;;;9.40;99.90;;;;;;5054419;28;20315;-82
2022/11/12 03:58:17;;;;;;;96.75;37.72;;;9.30;99.90;;;;;;5054109;28;20392;-82
2022/11/12 04:00:43;;;;;;;96.78;36.05;;;9.30;99.90;;;;;;5036246;28;20040;-82
2022/11/12 04:03:09;;;;;;;49.55;35.67;;;9.20;99.90;;;;;;5055022;28;20028;-82
2022/11/12 04:08:36;;;;;;;76.28;35.70;;;9.20;99.90;;;;;;5057211;28;20048;-84
2022/11/12 04:11:13;;;;;;;78.03;36.28;;;9.20;99.90;;;;;;5035175;28;20393;-84
2022/11/12 04:13:40;;;;;;;61.50;36.22;;;9.20;99.90;;;;;;5020860;28;20021;-84
2022/11/12 04:21:50;;;;;;;45.95;35.50;;;9.40;99.90;;;;;;5055218;28;20397;-84
2022/11/12 04:27:01;;;;;;;44.55;34.42;;;9.20;99.90;;;;;;5041101;28;20047;-84
2022/11/12 04:32:12;;;;;;;56.17;35.95;;;9.20;99.90;;;;;;5039205;28;20036;-84
2022/11/12 04:34:38;;;;;;;58.08;35.38;;;9.20;99.90;;;;;;5036921;28;20029;-84
2022/11/12 04:37:04;;;;;;;99.25;37.85;;;9.20;99.90;;;;;;5019979;28;20037;-84
2022/11/12 04:39:30;;;;;;;114.78;36.80;;;9.10;99.90;;;;;;5036500;28;20033;-84
2022/11/12 04:44:59;;;;;;;40.55;36.17;;;9.30;99.90;;;;;;5045240;28;20047;-84
2022/11/12 04:47:27;;;;;;;71.90;35.88;;;9.40;99.90;;;;;;5038920;28;20029;-84
2022/11/12 04:49:53;;;;;;;101.57;36.47;;;9.30;99.90;;;;;;5054253;28;20025;-84
2022/11/12 04:52:20;;;;;;;54.05;34.92;;;9.30;99.90;;;;;;5019637;28;20037;-84
2022/11/12 04:54:46;;;;;;;61.85;36.00;;;9.30;99.90;;;;;;5019835;28;20036;-84
2022/11/12 04:57:12;;;;;;;96.07;38.40;;;9.20;99.90;;;;;;5036410;28;20033;-84
2022/11/12 04:59:38;;;;;;;68.75;35.92;;;9.10;99.90;;;;;;5019793;28;20044;-84
2022/11/12 05:02:04;;;;;;;66.70;35.05;;;9.10;99.90;;;;;;5002090;28;20048;-84
2022/11/12 05:04:30;;;;;;;77.53;35.70;;;9.10;99.90;;;;;;5053873;28;20461;-84
2022/11/12 05:06:56;;;;;;;130.65;38.20;;;9.10;99.90;;;;;;5035752;28;20051;-84
2022/11/12 05:09:24;;;;;;;220.23;46.33;;;9.20;99.90;;;;;;5053510;28;20036;-84
2022/11/12 05:11:50;;;;;;;110.00;39.00;;;9.40;99.90;;;;;;5019156;28;20037;-84
2022/11/12 05:14:17;;;;;;;176.57;45.45;;;9.50;99.90;;;;;;5003006;28;20045;-84
2022/11/12 05:16:43;;;;;;;66.05;35.40;;;9.60;99.90;;;;;;5053279;28;20346;-84
2022/11/12 05:19:09;;;;;;;68.80;38.28;;;9.80;99.90;;;;;;5036010;28;20450;-84
2022/11/12 05:24:20;;;;;;;54.63;35.40;;;9.70;99.90;;;;;;5060005;28;20040;-84
2022/11/12 05:26:46;;;;;;;150.95;40.88;;;9.70;99.90;;;;;;5035573;28;20344;-84
2022/11/12 05:29:12;;;;;;;125.95;40.15;;;9.70;99.90;;;;;;5053543;28;20032;-84
2022/11/12 05:31:38;;;;;;;272.35;48.60;;;9.90;99.90;;;;;;5053126;28;20584;-84
2022/11/12 05:34:04;;;;;;;96.55;39.45;;;10.00;99.90;;;;;;5035629;28;20029;-84
2022/11/12 05:36:30;;;;;;;128.55;41.05;;;10.00;99.90;;;;;;5035562;28;20036;-84
2022/11/12 05:38:56;;;;;;;51.50;38.88;;;10.00;99.90;;;;;;5053132;28;20478;-84
2022/11/12 05:41:22;;;;;;;197.52;45.28;;;10.00;99.90;;;;;;5053253;28;20044;-84
2022/11/12 05:43:48;;;;;;;94.97;40.00;;;9.80;99.90;;;;;;5053248;28;20033;-84
2022/11/12 05:46:14;;;;;;;152.70;44.97;;;9.90;99.90;;;;;;5034851;28;20410;-84
2022/11/12 05:48:41;;;;;;;91.40;41.17;;;10.00;99.90;;;;;;5053258;28;20025;-84
2022/11/12 05:51:07;;;;;;;60.20;39.75;;;10.10;99.90;;;;;;5052229;28;20029;-84
2022/11/12 05:53:33;;;;;;;136.00;39.63;;;10.10;99.90;;;;;;5035047;28;20032;-84
2022/11/12 05:56:03;;;;;;;54.22;38.78;;;9.80;99.90;;;;;;5018764;28;20037;-84
2022/11/12 05:58:30;;;;;;;53.28;38.53;;;9.90;99.90;;;;;;5019060;28;20033;-84
2022/11/12 06:00:56;;;;;;;56.67;37.17;;;9.90;99.90;;;;;;5052603;28;20025;-84
2022/11/12 06:03:23;;;;;;;54.90;32.20;;;9.70;99.90;;;;;;5018316;28;20052;-84
2022/11/12 06:05:49;;;;;;;43.92;30.40;;;9.40;99.90;;;;;;5018728;28;20029;-84
2022/11/12 06:08:15;;;;;;;45.90;32.83;;;9.30;99.90;;;;;;5017964;28;20385;-84
2022/11/12 06:10:41;;;;;;;65.90;32.60;;;9.20;99.90;;;;;;5052833;28;20032;-84
2022/11/12 06:13:07;;;;;;;59.42;34.15;;;9.10;99.90;;;;;;5035242;28;20044;-84
2022/11/12 06:15:34;;;;;;;37.75;33.67;;;9.10;99.90;;;;;;5052387;28;20527;-84
2022/11/12 06:18:00;;;;;;;91.20;36.17;;;9.10;99.90;;;;;;5017756;28;20029;-84
2022/11/12 06:20:26;;;;;;;91.72;41.25;;;9.10;99.90;;;;;;5033839;28;20044;-84
2022/11/12 06:22:52;;;;;;;70.43;38.33;;;9.20;99.90;;;;;;5052637;28;20033;-84
2022/11/12 06:25:18;;;;;;;65.05;37.42;;;9.20;99.90;;;;;;5034814;28;20045;-83
2022/11/12 06:27:44;;;;;;;140.52;38.20;;;9.20;99.90;;;;;;5052620;28;20056;-84
2022/11/12 06:30:10;;;;;;;248.23;42.50;;;9.10;99.90;;;;;;5052017;28;20033;-84
2022/11/12 06:32:36;;;;;;;392.52;48.17;;;9.10;99.90;;;;;;5017999;28;20493;-84
2022/11/12 06:35:03;;;;;;;113.65;37.17;;;9.20;99.90;;;;;;5034555;28;20044;-84
2022/11/12 06:37:29;;;;;;;64.18;36.35;;;9.20;99.90;;;;;;5034639;28;20036;-84
2022/11/12 06:39:55;;;;;;;69.05;36.05;;;9.10;99.90;;;;;;5051072;28;20556;-84
2022/11/12 06:42:21;;;;;;;95.60;37.90;;;9.10;99.90;;;;;;5049745;28;20037;-84
2022/11/12 06:44:47;;;;;;;121.43;36.28;;;9.10;99.90;;;;;;5034504;28;20052;-84
2022/11/12 06:47:13;;;;;;;94.25;35.63;;;9.20;99.90;;;;;;5034005;28;20033;-84
2022/11/12 06:49:39;;;;;;;128.93;37.58;;;9.20;99.90;;;;;;5034009;28;20052;-83
2022/11/12 06:52:05;;;;;;;77.97;35.60;;;9.10;99.90;;;;;;5034406;28;20040;-84
2022/11/12 06:54:31;;;;;;;56.58;36.92;;;9.10;99.90;;;;;;5033913;28;20508;-83
2022/11/12 06:56:57;;;;;;;64.22;35.30;;;9.10;99.90;;;;;;5052266;28;20036;-84
2022/11/12 06:59:23;;;;;;;68.90;36.78;;;9.00;99.90;;;;;;5034533;28;20036;-84
2022/11/12 07:01:50;;;;;;;46.03;34.97;;;9.00;99.90;;;;;;5017574;28;20033;-84
2022/11/12 07:04:16;;;;;;;49.40;35.40;;;9.00;99.90;;;;;;5051799;28;20037;-84
2022/11/12 07:06:42;;;;;;;41.35;36.58;;;8.90;99.90;;;;;;5017930;28;20033;-84
2022/11/12 07:09:08;;;;;;;62.67;34.58;;;9.00;99.90;;;;;;5017406;28;20116;-84
2022/11/12 07:11:34;;;;;;;102.68;38.17;;;9.00;99.90;;;;;;5033964;28;20044;-84
2022/11/12 07:14:00;;;;;;;68.25;35.33;;;9.00;99.90;;;;;;5034366;28;20394;-84
2022/11/12 07:16:26;;;;;;;44.42;37.22;;;9.10;99.90;;;;;;5033923;28;20375;-83
2022/11/12 07:18:52;;;;;;;54.72;36.50;;;9.20;99.90;;;;;;5051615;28;20028;-84
2022/11/12 07:21:19;;;;;;;48.33;36.38;;;9.20;99.90;;;;;;5017261;28;20385;-84
2022/11/12 07:23:45;;;;;;;84.70;38.30;;;9.30;99.90;;;;;;5052118;28;20017;-84
2022/11/12 07:26:14;;;;;;;678.85;95.75;;;9.50;99.90;;;;;;5051989;28;20036;-84
2022/11/12 07:28:40;;;;;;;47.45;42.28;;;9.60;99.90;;;;;;5051752;28;20025;-84
2022/11/12 07:31:09;;;;;;;47.45;42.80;;;9.80;99.90;;;;;;5055280;28;20036;-83
2022/11/12 07:33:35;;;;;;;47.65;43.53;;;9.50;99.90;;;;;;5054295;28;20033;-84
2022/11/12 07:36:20;;;;;;;47.88;43.75;;;9.40;99.90;;;;;;5055730;28;20083;-84
2022/11/12 07:38:46;;;;;;;48.92;41.28;;;9.40;99.90;;;;;;5037903;28;20032;-84
2022/11/12 07:41:14;;;;;;;42.63;38.55;;;9.30;99.90;;;;;;5037781;28;20060;-84
2022/11/12 07:43:41;;;;;;;42.38;38.25;;;9.40;99.90;;;;;;5037807;28;20378;-84
2022/11/12 07:46:15;;;;;;;41.97;37.75;;;9.60;99.90;;;;;;5035450;28;20056;-84
2022/11/12 07:48:41;;;;;;;42.90;38.90;;;9.50;99.90;;;;;;5020677;28;20525;-84
2022/11/12 07:51:20;;;;;;;44.42;40.15;;;9.60;99.90;;;;;;5037715;28;20037;-84
2022/11/12 07:53:46;;;;;;;48.92;41.45;;;9.60;99.90;;;;;;5055480;28;20029;-83
2022/11/12 07:56:17;;;;;;;43.70;39.50;;;9.60;99.90;;;;;;5021211;28;20033;-84
2022/11/12 07:58:43;;;;;;;43.60;39.40;;;9.70;99.90;;;;;;5021651;28;20059;-84
2022/11/12 08:01:29;;;;;;;41.40;37.63;;;9.70;99.90;;;;;;5020578;28;20504;-84
2022/11/12 08:03:56;;;;;;;44.38;40.40;;;9.60;99.90;;;;;;5054764;28;20029;-84
2022/11/12 08:06:22;;;;;;;40.33;36.72;;;9.60;99.90;;;;;;5021037;28;20033;-84
2022/11/12 08:08:52;;;;;;;41.65;37.83;;;9.60;99.90;;;;;;5019989;28;20039;-84
2022/11/12 08:11:18;;;;;;;40.83;37.03;;;9.50;99.90;;;;;;5020453;28;20052;-84
2022/11/12 08:13:44;;;;;;;44.67;40.28;;;9.60;99.90;;;;;;5021137;28;20021;-84
2022/11/12 08:16:10;;;;;;;42.65;39.10;;;9.60;99.90;;;;;;5054599;28;20060;-85
2022/11/12 08:18:37;;;;;;;43.13;39.25;;;9.60;99.90;;;;;;5036109;28;20033;-84
2022/11/12 08:21:04;;;;;;;41.92;38.17;;;9.60;99.90;;;;;;5055017;28;20377;-84
2022/11/12 08:23:30;;;;;;;43.03;39.50;;;9.70;99.90;;;;;;5054786;28;20021;-84
2022/11/12 08:26:00;;;;;;;39.20;35.78;;;9.70;99.90;;;;;;5036971;28;20045;-84
2022/11/12 08:28:30;;;;;;;39.60;36.30;;;9.80;99.90;;;;;;5037131;28;20032;-84
2022/11/12 08:30:57;;;;;;;39.58;35.67;;;9.90;99.90;;;;;;5036211;28;20029;-84
2022/11/12 08:33:23;;;;;;;39.10;35.85;;;9.90;99.90;;;;;;5036759;28;20492;-84
2022/11/12 08:35:49;;;;;;;38.25;34.97;;;10.00;99.90;;;;;;5036746;28;20033;-84
2022/11/12 08:38:16;;;;;;;41.55;37.85;;;10.10;99.90;;;;;;5054751;28;20040;-84
2022/11/12 08:40:42;;;;;;;41.22;37.75;;;10.20;99.90;;;;;;5053418;28;20063;-83
2022/11/12 08:43:09;;;;;;;44.80;41.08;;;10.20;99.90;;;;;;5036479;28;20041;-84
2022/11/12 08:45:39;;;;;;;41.75;38.15;;;10.30;99.90;;;;;;5035787;28;20486;-84
2022/11/12 08:48:06;;;;;;;41.17;37.88;;;10.40;99.90;;;;;;5036663;28;20405;-85
2022/11/12 08:50:33;;;;;;;34.45;31.75;;;10.50;99.90;;;;;;5020374;28;20366;-85
2022/11/12 08:53:03;;;;;;;37.40;34.53;;;10.50;99.90;;;;;;5020111;28;20037;-84
2022/11/12 08:55:30;;;;;;;41.58;38.28;;;10.60;99.90;;;;;;5036730;28;20488;-85
2022/11/12 08:58:00;;;;;;;39.08;35.55;;;10.60;99.90;;;;;;5036336;28;20044;-84
2022/11/12 09:00:27;;;;;;;33.75;30.67;;;10.70;99.90;;;;;;5053428;28;20393;-84
2022/11/12 09:02:53;;;;;;;40.20;37.10;;;10.80;99.90;;;;;;5054215;28;20040;-85
2022/11/12 09:05:19;;;;;;;35.22;32.33;;;10.90;99.90;;;;;;5053957;28;20025;-85
2022/11/12 09:07:46;;;;;;;36.45;33.20;;;10.90;99.90;;;;;;5020059;28;20022;-84
2022/11/12 09:10:12;;;;;;;35.78;32.95;;;11.00;99.90;;;;;;5036132;28;20025;-84
2022/11/12 09:12:38;;;;;;;35.50;32.63;;;11.00;99.90;;;;;;5035448;28;20037;-84
2022/11/12 09:15:05;;;;;;;38.20;34.80;;;11.10;99.90;;;;;;5034306;28;20033;-85
2022/11/12 09:17:34;;;;;;;38.42;35.22;;;11.10;99.90;;;;;;5053775;28;20485;-85
2022/11/12 09:20:00;;;;;;;44.78;41.30;;;11.20;99.90;;;;;;5036228;28;20021;-84
2022/11/12 09:22:26;;;;;;;41.13;38.03;;;11.30;99.90;;;;;;5053592;28;20492;-84
2022/11/12 09:24:52;;;;;;;49.63;45.75;;;11.30;99.90;;;;;;5035948;28;20044;-85
2022/11/12 09:27:18;;;;;;;54.22;49.25;;;11.40;99.90;;;;;;5035940;28;20021;-84
2022/11/12 09:29:44;;;;;;;54.60;49.65;;;11.40;99.90;;;;;;5035842;28;20073;-84
2022/11/12 09:32:10;;;;;;;54.65;50.17;;;11.50;99.90;;;;;;5053025;28;20036;-84
2022/11/12 09:34:36;;;;;;;54.88;50.45;;;11.60;99.90;;;;;;5018854;28;20474;-85
2022/11/12 09:37:02;;;;;;;50.85;46.58;;;11.70;99.90;;;;;;5053027;28;20470;-84
2022/11/12 09:39:28;;;;;;;49.70;45.70;;;11.70;99.90;;;;;;5035415;28;20040;-85
2022/11/12 09:41:54;;;;;;;49.05;44.85;;;11.90;99.90;;;;;;5053193;28;20406;-84
2022/11/12 09:44:23;;;;;;;50.55;46.67;;;11.90;99.90;;;;;;5035125;28;20028;-84
2022/11/12 09:47:35;;;;;;;54.67;50.90;;;12.00;99.90;;;;;;5035129;28;20139;-84
2022/11/12 09:50:23;;;;;;;58.63;54.45;;;12.00;99.90;;;;;;4974239;28;20031;-85
2022/11/12 09:52:52;;;;;;;53.65;50.10;;;12.10;99.90;;;;;;4990656;28;20065;-85
2022/11/12 09:55:23;;;;;;;53.35;49.33;;;12.20;99.90;;;;;;4959524;28;20041;-85
2022/11/12 09:57:49;;;;;;;54.30;50.22;;;12.30;99.90;;;;;;4959416;28;20038;-84
2022/11/12 10:00:16;;;;;;;56.22;52.55;;;12.40;99.90;;;;;;4974976;28;20506;-84
2022/11/12 10:03:05;;;;;;;58.15;54.50;;;12.40;99.90;;;;;;4959386;28;20039;-84
2022/11/12 10:05:36;;;;;;;62.72;58.92;;;12.50;99.90;;;;;;4961532;28;20138;-85
2022/11/12 10:08:14;;;;;;;65.55;61.75;;;12.50;99.90;;;;;;4959623;28;20472;-85
2022/11/12 10:11:14;;;;;;;51.88;48.65;;;12.50;99.90;;;;;;4975934;28;20138;-84
2022/11/12 10:14:08;;;;;;;48.58;45.47;;;12.60;99.90;;;;;;4970330;28;20042;-84
2022/11/12 10:17:13;;;;;;;53.55;50.35;;;12.70;99.90;;;;;;4974519;28;20031;-84
2022/11/12 10:19:45;;;;;;;47.95;45.08;;;12.80;99.90;;;;;;4990766;28;20034;-84
2022/11/12 10:22:48;;;;;;;44.97;41.97;;;12.90;99.90;;;;;;4975146;28;20063;-85
2022/11/12 10:25:16;;;;;;;44.65;41.83;;;12.90;99.90;;;;;;4991219;28;20076;-84
2022/11/12 10:27:42;;;;;;;44.22;41.45;;;12.90;99.90;;;;;;5016781;28;20044;-84
2022/11/12 10:30:16;;;;;;;41.67;38.75;;;13.00;99.90;;;;;;5034355;28;20370;-84
2022/11/12 10:32:44;;;;;;;44.45;41.65;;;13.00;99.90;;;;;;5034949;28;20017;-84
2022/11/12 10:35:12;;;;;;;43.08;40.45;;;13.10;99.90;;;;;;5034867;28;20044;-84
2022/11/12 10:37:52;;;;;;;40.90;38.30;;;13.20;99.90;;;;;;5017440;28;20033;-84
2022/11/12 10:40:32;;;;;;;43.53;40.70;;;13.30;99.90;;;;;;5034607;28;20041;-83
2022/11/12 10:43:08;;;;;;;48.33;45.10;;;13.30;99.90;;;;;;5034544;28;20351;-84
2022/11/12 10:45:34;;;;;;;43.45;40.75;;;13.40;99.90;;;;;;5034016;28;20044;-84
2022/11/12 10:48:00;;;;;;;44.33;41.13;;;13.50;99.90;;;;;;5052192;28;20021;-84
2022/11/12 10:50:39;;;;;;;41.90;38.72;;;13.60;99.90;;;;;;5034834;28;20378;-83
2022/11/12 10:53:06;;;;;;;37.35;34.85;;;13.70;99.90;;;;;;5033964;28;20129;-84
2022/11/12 10:55:34;;;;;;;37.08;34.50;;;13.70;99.90;;;;;;5017193;28;20029;-84
2022/11/12 10:58:04;;;;;;;43.13;40.33;;;13.80;99.90;;;;;;5017122;28;20044;-84
2022/11/12 11:00:31;;;;;;;34.25;31.77;;;13.90;99.90;;;;;;5051342;28;20393;-84
2022/11/12 11:02:57;;;;;;;37.85;35.05;;;13.90;99.90;;;;;;5017644;28;20492;-84
2022/11/12 11:05:30;;;;;;;39.25;36.65;;;14.00;99.90;;;;;;5037025;28;20425;-84
2022/11/12 11:07:56;;;;;;;41.40;38.60;;;14.10;99.90;;;;;;5056186;28;20036;-84
2022/11/12 11:10:28;;;;;;;43.25;40.35;;;14.20;99.90;;;;;;5021820;28;20079;-83
2022/11/12 11:13:25;;;;;;;43.35;40.35;;;14.20;99.90;;;;;;5038589;28;20017;-84
2022/11/12 11:16:01;;;;;;;40.30;37.20;;;14.30;99.90;;;;;;5037765;28;20481;-84
2022/11/12 11:18:28;;;;;;;43.35;40.47;;;14.40;99.90;;;;;;5038212;28;20115;-84
2022/11/12 11:21:12;;;;;;;41.55;39.03;;;14.40;99.90;;;;;;5020922;28;20029;-84
2022/11/12 11:23:47;;;;;;;46.08;43.03;;;14.40;99.90;;;;;;5040086;28;20025;-84
2022/11/12 11:26:21;;;;;;;41.90;38.97;;;14.50;99.90;;;;;;5037825;28;20041;-84
2022/11/12 11:29:27;;;;;;;41.78;38.90;;;14.50;99.90;;;;;;5038170;28;20025;-82
2022/11/12 11:32:10;;;;;;;41.65;38.88;;;14.60;99.90;;;;;;5036933;28;20025;-82
2022/11/12 11:35:06;;;;;;;34.42;32.22;;;14.70;99.90;;;;;;5037994;28;20036;-84
2022/11/12 11:37:37;;;;;;;34.75;32.33;;;14.80;99.90;;;;;;5037905;28;20032;-82
2022/11/12 11:40:39;;;;;;;38.67;36.08;;;14.90;99.90;;;;;;5037426;28;20032;-81
2022/11/12 11:43:30;;;;;;;38.67;36.20;;;15.00;99.90;;;;;;5021052;28;20044;-82
2022/11/12 11:46:19;;;;;;;41.65;38.97;;;15.10;99.90;;;;;;5053140;28;20044;-82
2022/11/12 11:48:57;;;;;;;43.45;40.72;;;15.20;99.90;;;;;;5020618;28;20041;-83
2022/11/12 11:51:37;;;;;;;41.10;38.67;;;15.30;99.90;;;;;;5037262;28;20508;-84
2022/11/12 11:54:41;;;;;;;38.72;36.22;;;15.40;99.90;;;;;;5037303;28;20021;-84
2022/11/12 11:57:14;;;;;;;38.95;36.55;;;15.40;99.90;;;;;;4993713;28;20034;-84
2022/11/12 12:00:09;;;;;;;36.80;34.35;;;15.50;99.90;;;;;;4977795;28;20030;-82
2022/11/12 12:02:41;;;;;;;37.58;35.13;;;15.50;99.90;;;;;;4992624;28;20046;-82
2022/11/12 12:05:37;;;;;;;36.03;33.92;;;15.70;99.90;;;;;;4993635;28;20065;-84
2022/11/12 12:08:29;;;;;;;33.70;31.27;;;15.80;99.90;;;;;;4993460;28;20744;-84
2022/11/12 12:11:07;;;;;;;29.13;26.95;;;15.80;99.90;;;;;;4963561;28;20039;-84
2022/11/12 12:13:57;;;;;;;26.42;24.70;;;16.00;99.90;;;;;;4993669;28;20090;-84
2022/11/12 12:16:38;;;;;;;25.52;24.02;;;16.10;99.90;;;;;;4991912;28;20037;-84
2022/11/12 12:19:13;;;;;;;27.83;26.02;;;16.10;99.90;;;;;;4977269;28;20412;-84
2022/11/12 12:21:40;;;;;;;27.30;25.63;;;16.20;99.90;;;;;;4977786;28;20060;-84
2022/11/12 12:24:14;;;;;;;25.05;23.30;;;16.30;99.90;;;;;;4976930;28;20048;-85
2022/11/12 12:26:49;;;;;;;26.52;24.73;;;16.40;99.90;;;;;;4976768;28;20074;-82
2022/11/12 12:29:18;;;;;;;26.50;24.83;;;16.60;99.90;;;;;;4993261;28;20030;-84
2022/11/12 12:31:55;;;;;;;27.95;26.15;;;16.70;99.90;;;;;;4976633;28;20046;-85
2022/11/12 12:34:32;;;;;;;24.73;22.88;;;16.80;99.90;;;;;;4999377;28;20500;-84
2022/11/12 12:37:06;;;;;;;27.95;26.05;;;17.00;99.90;;;;;;5037130;28;20474;-85
2022/11/12 12:39:56;;;;;;;27.15;25.50;;;16.90;99.90;;;;;;5020255;28;20037;-82
2022/11/12 12:42:28;;;;;;;27.58;25.77;;;17.00;99.90;;;;;;5039354;28;20044;-82
2022/11/12 12:44:59;;;;;;;24.52;22.98;;;17.00;99.90;;;;;;5020741;28;20040;-84
2022/11/12 12:47:32;;;;;;;26.90;25.15;;;17.00;99.90;;;;;;5019787;28;20497;-84
2022/11/12 12:49:59;;;;;;;28.25;26.27;;;17.10;99.90;;;;;;5016842;28;20030;-84
2022/11/12 12:52:25;;;;;;;24.60;23.17;;;17.20;99.90;;;;;;5016465;28;20514;-84
2022/11/12 12:54:51;;;;;;;27.27;25.67;;;17.30;99.90;;;;;;5016551;28;20084;-84
2022/11/12 12:57:29;;;;;;;27.63;25.67;;;17.30;99.90;;;;;;5034377;28;20036;-84
2022/11/12 13:00:27;;;;;;;27.02;25.13;;;17.30;99.90;;;;;;5016880;28;20036;-82
2022/11/12 13:02:53;;;;;;;23.92;22.48;;;17.40;99.90;;;;;;5004719;28;20471;-82
2022/11/12 13:05:31;;;;;;;25.42;23.73;;;17.40;99.90;;;;;;5016594;28;20037;-82